sensor_id;sensor_type;location;lat;lon;timestamp;P1;durP1;ratioP1;P2;durP2;ratioP2
52396;SDS011;38322;53.108;6.308;2023-03-01T06:01:49;24.70;;;9.52;;
52396;SDS011;38322;53.108;6.308;2023-03-01T06:04:16;11.95;;;7.45;;
52396;SDS011;38322;53.108;6.308;2023-03-01T06:06:42;34.60;;;9.30;;
52396;SDS011;38322;53.108;6.308;2023-03-01T06:09:07;49.60;;;10.80;;
52396;SDS011;38322;53.108;6.308;2023-03-01T06:11:35;19.92;;;9.55;;
52396;SDS011;38322;53.108;6.308;2023-03-01T06:14:01;22.13;;;12.13;;
52396;SDS011;38322;53.108;6.308;2023-03-01T06:16:28;32.50;;;9.77;;
52396;SDS011;38322;53.108;6.308;2023-03-01T06:18:54;48.58;;;10.88;;
52396;SDS011;38322;53.108;6.308;2023-03-01T06:21:19;58.33;;;11.00;;
52396;SDS011;38322;53.108;6.308;2023-03-01T06:23:45;48.95;;;12.02;;
52396;SDS011;38322;53.108;6.308;2023-03-01T06:26:11;13.80;;;9.82;;
52396;SDS011;38322;53.108;6.308;2023-03-01T06:28:37;15.25;;;9.80;;
52396;SDS011;38322;53.108;6.308;2023-03-01T06:31:03;27.55;;;13.30;;
52396;SDS011;38322;53.108;6.308;2023-03-01T06:33:29;96.78;;;17.25;;
52396;SDS011;38322;53.108;6.308;2023-03-01T06:35:55;77.45;;;19.98;;
52396;SDS011;38322;53.108;6.308;2023-03-01T06:38:22;42.92;;;18.90;;
52396;SDS011;38322;53.108;6.308;2023-03-01T06:40:52;68.03;;;18.33;;
52396;SDS011;38322;53.108;6.308;2023-03-01T06:43:20;25.27;;;12.90;;
52396;SDS011;38322;53.108;6.308;2023-03-01T06:45:46;19.55;;;11.85;;
52396;SDS011;38322;53.108;6.308;2023-03-01T06:48:12;17.63;;;12.70;;
52396;SDS011;38322;53.108;6.308;2023-03-01T06:50:37;15.13;;;10.68;;
52396;SDS011;38322;53.108;6.308;2023-03-01T06:53:04;19.15;;;10.70;;
52396;SDS011;38322;53.108;6.308;2023-03-01T06:55:30;15.40;;;11.73;;
52396;SDS011;38322;53.108;6.308;2023-03-01T06:57:57;15.13;;;10.13;;
52396;SDS011;38322;53.108;6.308;2023-03-01T07:00:24;13.23;;;10.20;;
52396;SDS011;38322;53.108;6.308;2023-03-01T07:02:51;12.88;;;9.27;;
52396;SDS011;38322;53.108;6.308;2023-03-01T07:05:17;21.67;;;14.10;;
52396;SDS011;38322;53.108;6.308;2023-03-01T07:07:43;15.35;;;12.00;;
52396;SDS011;38322;53.108;6.308;2023-03-01T07:10:09;29.70;;;18.90;;
52396;SDS011;38322;53.108;6.308;2023-03-01T07:12:35;33.75;;;18.48;;
52396;SDS011;38322;53.108;6.308;2023-03-01T07:15:02;20.88;;;16.10;;
52396;SDS011;38322;53.108;6.308;2023-03-01T07:17:28;22.77;;;16.50;;
52396;SDS011;38322;53.108;6.308;2023-03-01T07:19:54;20.45;;;16.00;;
52396;SDS011;38322;53.108;6.308;2023-03-01T07:22:21;24.00;;;14.50;;
52396;SDS011;38322;53.108;6.308;2023-03-01T07:24:46;21.25;;;16.35;;
52396;SDS011;38322;53.108;6.308;2023-03-01T07:27:12;22.17;;;15.40;;
52396;SDS011;38322;53.108;6.308;2023-03-01T07:29:38;23.00;;;14.48;;
52396;SDS011;38322;53.108;6.308;2023-03-01T07:32:04;19.60;;;14.48;;
52396;SDS011;38322;53.108;6.308;2023-03-01T07:34:31;21.52;;;14.77;;
52396;SDS011;38322;53.108;6.308;2023-03-01T07:36:57;18.27;;;15.30;;
52396;SDS011;38322;53.108;6.308;2023-03-01T07:39:23;19.85;;;15.10;;
52396;SDS011;38322;53.108;6.308;2023-03-01T07:41:49;18.80;;;13.52;;
52396;SDS011;38322;53.108;6.308;2023-03-01T07:44:15;25.48;;;16.75;;
52396;SDS011;38322;53.108;6.308;2023-03-01T07:46:42;25.25;;;15.23;;
52396;SDS011;38322;53.108;6.308;2023-03-01T07:49:08;20.02;;;13.75;;
52396;SDS011;38322;53.108;6.308;2023-03-01T07:51:34;21.88;;;16.38;;
52396;SDS011;38322;53.108;6.308;2023-03-01T07:54:00;23.35;;;14.32;;
52396;SDS011;38322;53.108;6.308;2023-03-01T07:56:26;29.40;;;17.88;;
52396;SDS011;38322;53.108;6.308;2023-03-01T07:58:52;21.30;;;15.38;;
52396;SDS011;38322;53.108;6.308;2023-03-01T08:01:19;25.05;;;16.23;;
52396;SDS011;38322;53.108;6.308;2023-03-01T08:03:45;26.35;;;16.98;;
52396;SDS011;38322;53.108;6.308;2023-03-01T08:06:12;25.42;;;16.83;;
52396;SDS011;38322;53.108;6.308;2023-03-01T08:08:40;24.80;;;17.20;;
52396;SDS011;38322;53.108;6.308;2023-03-01T08:11:07;27.80;;;18.48;;
52396;SDS011;38322;53.108;6.308;2023-03-01T08:13:35;21.23;;;15.05;;
52396;SDS011;38322;53.108;6.308;2023-03-01T08:16:03;25.27;;;19.23;;
52396;SDS011;38322;53.108;6.308;2023-03-01T08:18:31;24.20;;;17.13;;
52396;SDS011;38322;53.108;6.308;2023-03-01T08:21:04;27.85;;;19.90;;
52396;SDS011;38322;53.108;6.308;2023-03-01T08:23:31;27.73;;;18.80;;
52396;SDS011;38322;53.108;6.308;2023-03-01T08:26:08;28.40;;;19.60;;
52396;SDS011;38322;53.108;6.308;2023-03-01T08:28:39;25.38;;;19.42;;
52396;SDS011;38322;53.108;6.308;2023-03-01T08:31:26;24.38;;;19.25;;
52396;SDS011;38322;53.108;6.308;2023-03-01T08:33:54;28.85;;;18.48;;
52396;SDS011;38322;53.108;6.308;2023-03-01T08:36:22;27.50;;;19.02;;
52396;SDS011;38322;53.108;6.308;2023-03-01T08:38:49;31.33;;;21.50;;
52396;SDS011;38322;53.108;6.308;2023-03-01T08:41:15;29.35;;;20.35;;
52396;SDS011;38322;53.108;6.308;2023-03-01T08:43:41;30.15;;;20.77;;
52396;SDS011;38322;53.108;6.308;2023-03-01T08:46:07;30.88;;;22.20;;
52396;SDS011;38322;53.108;6.308;2023-03-01T08:48:33;29.73;;;20.75;;
52396;SDS011;38322;53.108;6.308;2023-03-01T08:51:12;32.35;;;23.67;;
52396;SDS011;38322;53.108;6.308;2023-03-01T08:53:40;41.75;;;25.17;;
52396;SDS011;38322;53.108;6.308;2023-03-01T08:56:06;37.55;;;23.30;;
52396;SDS011;38322;53.108;6.308;2023-03-01T08:58:33;32.55;;;23.23;;
52396;SDS011;38322;53.108;6.308;2023-03-01T09:00:58;35.95;;;22.63;;
52396;SDS011;38322;53.108;6.308;2023-03-01T09:03:25;39.17;;;25.25;;
52396;SDS011;38322;53.108;6.308;2023-03-01T09:05:51;34.15;;;23.75;;
52396;SDS011;38322;53.108;6.308;2023-03-01T09:08:18;33.05;;;23.38;;
52396;SDS011;38322;53.108;6.308;2023-03-01T09:10:44;39.42;;;22.63;;
52396;SDS011;38322;53.108;6.308;2023-03-01T09:13:10;35.50;;;23.00;;
52396;SDS011;38322;53.108;6.308;2023-03-01T09:15:37;34.75;;;22.58;;
52396;SDS011;38322;53.108;6.308;2023-03-01T09:18:03;35.42;;;23.88;;
52396;SDS011;38322;53.108;6.308;2023-03-01T09:20:30;41.75;;;26.20;;
52396;SDS011;38322;53.108;6.308;2023-03-01T09:22:57;37.67;;;23.30;;
52396;SDS011;38322;53.108;6.308;2023-03-01T09:25:23;34.88;;;21.38;;
52396;SDS011;38322;53.108;6.308;2023-03-01T09:27:51;38.15;;;23.58;;
52396;SDS011;38322;53.108;6.308;2023-03-01T09:30:17;36.05;;;23.30;;
52396;SDS011;38322;53.108;6.308;2023-03-01T09:32:43;34.75;;;24.20;;
52396;SDS011;38322;53.108;6.308;2023-03-01T09:35:10;36.45;;;23.83;;
52396;SDS011;38322;53.108;6.308;2023-03-01T09:37:37;36.92;;;26.30;;
52396;SDS011;38322;53.108;6.308;2023-03-01T09:40:04;38.53;;;24.75;;
52396;SDS011;38322;53.108;6.308;2023-03-01T09:42:32;32.95;;;23.45;;
52396;SDS011;38322;53.108;6.308;2023-03-01T09:45:06;35.47;;;23.98;;
52396;SDS011;38322;53.108;6.308;2023-03-01T09:47:45;31.40;;;20.83;;
52396;SDS011;38322;53.108;6.308;2023-03-01T09:50:11;30.73;;;20.25;;
52396;SDS011;38322;53.108;6.308;2023-03-01T09:55:12;28.92;;;20.45;;
52396;SDS011;38322;53.108;6.308;2023-03-01T09:57:50;30.90;;;22.02;;
52396;SDS011;38322;53.108;6.308;2023-03-01T10:08:27;26.88;;;16.67;;
52396;SDS011;38322;53.108;6.308;2023-03-01T10:11:16;26.08;;;17.25;;
52396;SDS011;38322;53.108;6.308;2023-03-01T10:13:47;26.00;;;17.48;;
52396;SDS011;38322;53.108;6.308;2023-03-01T10:16:31;27.50;;;18.63;;
52396;SDS011;38322;53.108;6.308;2023-03-01T10:19:04;22.30;;;15.18;;
52396;SDS011;38322;53.108;6.308;2023-03-01T10:21:31;25.52;;;17.73;;
52396;SDS011;38322;53.108;6.308;2023-03-01T10:24:12;22.60;;;16.60;;
52396;SDS011;38322;53.108;6.308;2023-03-01T10:26:44;21.65;;;15.77;;
52396;SDS011;38322;53.108;6.308;2023-03-01T10:29:16;27.25;;;15.82;;
52396;SDS011;38322;53.108;6.308;2023-03-01T10:31:46;20.83;;;16.25;;
52396;SDS011;38322;53.108;6.308;2023-03-01T10:36:44;28.17;;;18.75;;
52396;SDS011;38322;53.108;6.308;2023-03-01T10:39:14;23.10;;;15.98;;
52396;SDS011;38322;53.108;6.308;2023-03-01T10:41:57;21.40;;;15.13;;
52396;SDS011;38322;53.108;6.308;2023-03-01T10:44:38;22.98;;;15.45;;
52396;SDS011;38322;53.108;6.308;2023-03-01T10:47:14;19.88;;;14.27;;
52396;SDS011;38322;53.108;6.308;2023-03-01T10:49:51;18.70;;;13.65;;
52396;SDS011;38322;53.108;6.308;2023-03-01T10:52:21;17.83;;;13.85;;
52396;SDS011;38322;53.108;6.308;2023-03-01T10:54:52;19.75;;;14.75;;
52396;SDS011;38322;53.108;6.308;2023-03-01T10:57:24;17.58;;;13.15;;
52396;SDS011;38322;53.108;6.308;2023-03-01T11:00:19;19.40;;;13.43;;
52396;SDS011;38322;53.108;6.308;2023-03-01T11:02:48;18.73;;;14.25;;
52396;SDS011;38322;53.108;6.308;2023-03-01T11:05:18;17.85;;;12.43;;
52396;SDS011;38322;53.108;6.308;2023-03-01T11:07:57;20.38;;;14.05;;
52396;SDS011;38322;53.108;6.308;2023-03-01T11:10:28;17.77;;;13.65;;
52396;SDS011;38322;53.108;6.308;2023-03-01T11:13:16;18.15;;;13.55;;
52396;SDS011;38322;53.108;6.308;2023-03-01T11:15:58;17.88;;;12.70;;
52396;SDS011;38322;53.108;6.308;2023-03-01T11:18:26;15.60;;;12.02;;
52396;SDS011;38322;53.108;6.308;2023-03-01T11:20:55;17.30;;;13.70;;
52396;SDS011;38322;53.108;6.308;2023-03-01T11:23:23;17.65;;;13.43;;
52396;SDS011;38322;53.108;6.308;2023-03-01T11:25:53;19.35;;;13.73;;
52396;SDS011;38322;53.108;6.308;2023-03-01T11:28:22;18.60;;;13.00;;
52396;SDS011;38322;53.108;6.308;2023-03-01T11:30:50;17.33;;;12.23;;
52396;SDS011;38322;53.108;6.308;2023-03-01T11:33:24;17.25;;;13.02;;
52396;SDS011;38322;53.108;6.308;2023-03-01T11:36:23;14.00;;;10.75;;
52396;SDS011;38322;53.108;6.308;2023-03-01T11:39:02;17.20;;;12.45;;
52396;SDS011;38322;53.108;6.308;2023-03-01T11:41:39;14.63;;;11.20;;
52396;SDS011;38322;53.108;6.308;2023-03-01T11:46:43;14.70;;;12.52;;
52396;SDS011;38322;53.108;6.308;2023-03-01T11:49:40;18.35;;;12.68;;
52396;SDS011;38322;53.108;6.308;2023-03-01T11:52:35;18.77;;;11.30;;
52396;SDS011;38322;53.108;6.308;2023-03-01T11:58:14;17.02;;;10.52;;
52396;SDS011;38322;53.108;6.308;2023-03-01T12:06:24;18.27;;;11.88;;
52396;SDS011;38322;53.108;6.308;2023-03-01T12:11:41;20.20;;;10.13;;
52396;SDS011;38322;53.108;6.308;2023-03-01T12:14:21;17.48;;;11.93;;
52396;SDS011;38322;53.108;6.308;2023-03-01T12:17:04;17.98;;;12.27;;
52396;SDS011;38322;53.108;6.308;2023-03-01T12:20:11;18.75;;;13.05;;
52396;SDS011;38322;53.108;6.308;2023-03-01T12:25:34;18.48;;;13.25;;
52396;SDS011;38322;53.108;6.308;2023-03-01T12:28:16;19.67;;;12.35;;
52396;SDS011;38322;53.108;6.308;2023-03-01T12:38:48;16.98;;;12.05;;
52396;SDS011;38322;53.108;6.308;2023-03-01T12:41:40;17.00;;;13.77;;
52396;SDS011;38322;53.108;6.308;2023-03-01T12:47:18;22.83;;;14.80;;
52396;SDS011;38322;53.108;6.308;2023-03-01T12:50:11;26.58;;;16.75;;
52396;SDS011;38322;53.108;6.308;2023-03-01T12:52:44;21.33;;;14.52;;
52396;SDS011;38322;53.108;6.308;2023-03-01T12:55:26;19.08;;;14.07;;
52396;SDS011;38322;53.108;6.308;2023-03-01T12:58:04;16.60;;;13.05;;
52396;SDS011;38322;53.108;6.308;2023-03-01T13:01:04;19.17;;;13.43;;
52396;SDS011;38322;53.108;6.308;2023-03-01T13:06:25;15.13;;;12.27;;
52396;SDS011;38322;53.108;6.308;2023-03-01T13:08:56;16.27;;;11.90;;
52396;SDS011;38322;53.108;6.308;2023-03-01T13:11:29;14.05;;;11.43;;
52396;SDS011;38322;53.108;6.308;2023-03-01T13:16:49;19.02;;;14.95;;
52396;SDS011;38322;53.108;6.308;2023-03-01T13:21:45;16.00;;;11.75;;
52396;SDS011;38322;53.108;6.308;2023-03-01T13:24:23;17.63;;;11.80;;
52396;SDS011;38322;53.108;6.308;2023-03-01T13:29:49;17.13;;;13.10;;
52396;SDS011;38322;53.108;6.308;2023-03-01T13:32:24;19.23;;;13.13;;
52396;SDS011;38322;53.108;6.308;2023-03-01T13:34:51;17.42;;;11.05;;
52396;SDS011;38322;53.108;6.308;2023-03-01T13:37:25;18.95;;;11.98;;
52396;SDS011;38322;53.108;6.308;2023-03-01T13:39:54;16.60;;;10.77;;
52396;SDS011;38322;53.108;6.308;2023-03-01T13:42:30;16.35;;;12.18;;
52396;SDS011;38322;53.108;6.308;2023-03-01T13:44:57;17.45;;;12.80;;
52396;SDS011;38322;53.108;6.308;2023-03-01T13:47:23;15.55;;;10.90;;
52396;SDS011;38322;53.108;6.308;2023-03-01T13:49:51;15.02;;;12.15;;
52396;SDS011;38322;53.108;6.308;2023-03-01T13:52:42;21.02;;;12.55;;
52396;SDS011;38322;53.108;6.308;2023-03-01T13:55:19;18.30;;;14.15;;
52396;SDS011;38322;53.108;6.308;2023-03-01T13:57:53;16.23;;;13.52;;
52396;SDS011;38322;53.108;6.308;2023-03-01T14:00:28;20.40;;;13.55;;
52396;SDS011;38322;53.108;6.308;2023-03-01T14:05:36;17.20;;;13.13;;
52396;SDS011;38322;53.108;6.308;2023-03-01T14:08:04;15.98;;;12.68;;
52396;SDS011;38322;53.108;6.308;2023-03-01T14:10:35;18.60;;;13.32;;
52396;SDS011;38322;53.108;6.308;2023-03-01T14:13:14;17.50;;;12.20;;
52396;SDS011;38322;53.108;6.308;2023-03-01T14:18:39;15.23;;;12.20;;
52396;SDS011;38322;53.108;6.308;2023-03-01T14:21:17;16.25;;;12.18;;
52396;SDS011;38322;53.108;6.308;2023-03-01T14:23:43;16.85;;;12.93;;
52396;SDS011;38322;53.108;6.308;2023-03-01T14:26:09;17.13;;;12.98;;
52396;SDS011;38322;53.108;6.308;2023-03-01T14:28:37;14.52;;;11.10;;
52396;SDS011;38322;53.108;6.308;2023-03-01T14:31:29;15.52;;;12.13;;
52396;SDS011;38322;53.108;6.308;2023-03-01T14:33:58;15.95;;;12.40;;
52396;SDS011;38322;53.108;6.308;2023-03-01T14:36:26;18.13;;;13.50;;
52396;SDS011;38322;53.108;6.308;2023-03-01T14:38:53;22.73;;;14.77;;
52396;SDS011;38322;53.108;6.308;2023-03-01T14:41:21;16.40;;;11.70;;
52396;SDS011;38322;53.108;6.308;2023-03-01T14:43:50;16.42;;;13.20;;
52396;SDS011;38322;53.108;6.308;2023-03-01T14:46:31;18.17;;;14.02;;
52396;SDS011;38322;53.108;6.308;2023-03-01T14:49:02;20.55;;;13.10;;
52396;SDS011;38322;53.108;6.308;2023-03-01T14:51:35;15.75;;;12.32;;
52396;SDS011;38322;53.108;6.308;2023-03-01T14:54:10;15.07;;;11.05;;
52396;SDS011;38322;53.108;6.308;2023-03-01T14:56:51;15.07;;;11.38;;
52396;SDS011;38322;53.108;6.308;2023-03-01T14:59:22;16.02;;;11.77;;
52396;SDS011;38322;53.108;6.308;2023-03-01T15:01:50;18.52;;;13.30;;
52396;SDS011;38322;53.108;6.308;2023-03-01T15:04:18;16.42;;;11.40;;
52396;SDS011;38322;53.108;6.308;2023-03-01T15:06:45;17.73;;;11.75;;
52396;SDS011;38322;53.108;6.308;2023-03-01T15:09:14;15.18;;;11.95;;
52396;SDS011;38322;53.108;6.308;2023-03-01T15:11:42;16.73;;;12.77;;
52396;SDS011;38322;53.108;6.308;2023-03-01T15:17:13;18.48;;;12.68;;
52396;SDS011;38322;53.108;6.308;2023-03-01T15:19:59;20.27;;;14.27;;
52396;SDS011;38322;53.108;6.308;2023-03-01T15:22:29;16.40;;;13.55;;
52396;SDS011;38322;53.108;6.308;2023-03-01T15:24:55;20.73;;;13.15;;
52396;SDS011;38322;53.108;6.308;2023-03-01T15:27:23;18.77;;;13.85;;
52396;SDS011;38322;53.108;6.308;2023-03-01T15:29:52;20.40;;;14.63;;
52396;SDS011;38322;53.108;6.308;2023-03-01T15:32:25;20.05;;;13.02;;
52396;SDS011;38322;53.108;6.308;2023-03-01T15:34:57;20.70;;;14.35;;
52396;SDS011;38322;53.108;6.308;2023-03-01T15:37:38;25.95;;;15.32;;
52396;SDS011;38322;53.108;6.308;2023-03-01T15:43:03;20.75;;;15.70;;
52396;SDS011;38322;53.108;6.308;2023-03-01T15:45:31;18.73;;;14.98;;
52396;SDS011;38322;53.108;6.308;2023-03-01T15:48:00;18.42;;;14.15;;
52396;SDS011;38322;53.108;6.308;2023-03-01T15:50:29;23.98;;;16.58;;
52396;SDS011;38322;53.108;6.308;2023-03-01T15:52:58;22.25;;;15.57;;
52396;SDS011;38322;53.108;6.308;2023-03-01T15:55:27;19.13;;;14.30;;
52396;SDS011;38322;53.108;6.308;2023-03-01T15:58:10;20.33;;;14.52;;
52396;SDS011;38322;53.108;6.308;2023-03-01T16:00:39;17.42;;;13.77;;
52396;SDS011;38322;53.108;6.308;2023-03-01T16:03:05;21.80;;;14.73;;
52396;SDS011;38322;53.108;6.308;2023-03-01T16:05:33;22.00;;;15.50;;
52396;SDS011;38322;53.108;6.308;2023-03-01T16:08:00;20.83;;;16.15;;
52396;SDS011;38322;53.108;6.308;2023-03-01T16:10:26;18.92;;;14.50;;
52396;SDS011;38322;53.108;6.308;2023-03-01T16:12:52;19.65;;;13.68;;
52396;SDS011;38322;53.108;6.308;2023-03-01T16:15:21;21.00;;;13.85;;
52396;SDS011;38322;53.108;6.308;2023-03-01T16:17:49;24.63;;;14.52;;
52396;SDS011;38322;53.108;6.308;2023-03-01T16:20:15;18.23;;;15.10;;
52396;SDS011;38322;53.108;6.308;2023-03-01T16:22:42;20.40;;;15.27;;
52396;SDS011;38322;53.108;6.308;2023-03-01T16:25:10;21.55;;;15.40;;
52396;SDS011;38322;53.108;6.308;2023-03-01T16:27:37;19.80;;;14.10;;
52396;SDS011;38322;53.108;6.308;2023-03-01T16:30:04;19.63;;;13.05;;
52396;SDS011;38322;53.108;6.308;2023-03-01T16:32:31;23.15;;;17.23;;
52396;SDS011;38322;53.108;6.308;2023-03-01T16:34:57;19.08;;;14.25;;
52396;SDS011;38322;53.108;6.308;2023-03-01T16:37:23;21.02;;;15.68;;
52396;SDS011;38322;53.108;6.308;2023-03-01T16:39:48;21.52;;;14.82;;
52396;SDS011;38322;53.108;6.308;2023-03-01T16:42:17;23.92;;;17.17;;
52396;SDS011;38322;53.108;6.308;2023-03-01T16:44:43;21.25;;;15.05;;
52396;SDS011;38322;53.108;6.308;2023-03-01T16:47:09;19.58;;;14.35;;
52396;SDS011;38322;53.108;6.308;2023-03-01T16:49:34;18.40;;;12.93;;
52396;SDS011;38322;53.108;6.308;2023-03-01T16:52:00;20.17;;;15.05;;
52396;SDS011;38322;53.108;6.308;2023-03-01T16:54:26;18.90;;;13.70;;
52396;SDS011;38322;53.108;6.308;2023-03-01T16:56:52;22.73;;;14.80;;
52396;SDS011;38322;53.108;6.308;2023-03-01T16:59:18;22.00;;;14.50;;
52396;SDS011;38322;53.108;6.308;2023-03-01T17:01:44;17.90;;;13.98;;
52396;SDS011;38322;53.108;6.308;2023-03-01T17:04:11;21.60;;;15.88;;
52396;SDS011;38322;53.108;6.308;2023-03-01T17:06:37;23.65;;;16.67;;
52396;SDS011;38322;53.108;6.308;2023-03-01T17:09:03;22.60;;;17.10;;
52396;SDS011;38322;53.108;6.308;2023-03-01T17:11:29;23.67;;;16.42;;
52396;SDS011;38322;53.108;6.308;2023-03-01T17:13:55;24.25;;;17.45;;
52396;SDS011;38322;53.108;6.308;2023-03-01T17:16:21;28.25;;;17.60;;
52396;SDS011;38322;53.108;6.308;2023-03-01T17:18:47;26.58;;;18.63;;
52396;SDS011;38322;53.108;6.308;2023-03-01T17:21:14;29.23;;;18.73;;
52396;SDS011;38322;53.108;6.308;2023-03-01T17:23:40;25.05;;;16.27;;
52396;SDS011;38322;53.108;6.308;2023-03-01T17:26:07;28.27;;;18.45;;
52396;SDS011;38322;53.108;6.308;2023-03-01T17:28:34;25.35;;;17.23;;
52396;SDS011;38322;53.108;6.308;2023-03-01T17:31:01;25.80;;;18.10;;
52396;SDS011;38322;53.108;6.308;2023-03-01T17:33:28;25.95;;;16.38;;
52396;SDS011;38322;53.108;6.308;2023-03-01T17:35:56;23.30;;;16.83;;
52396;SDS011;38322;53.108;6.308;2023-03-01T17:38:22;25.77;;;16.50;;
52396;SDS011;38322;53.108;6.308;2023-03-01T17:40:48;22.77;;;15.80;;
52396;SDS011;38322;53.108;6.308;2023-03-01T17:43:14;26.20;;;16.02;;
52396;SDS011;38322;53.108;6.308;2023-03-01T17:45:41;24.48;;;16.65;;
52396;SDS011;38322;53.108;6.308;2023-03-01T17:48:13;26.33;;;16.73;;
52396;SDS011;38322;53.108;6.308;2023-03-01T17:50:40;26.92;;;17.67;;
52396;SDS011;38322;53.108;6.308;2023-03-01T17:53:06;22.05;;;15.77;;
52396;SDS011;38322;53.108;6.308;2023-03-01T17:55:34;27.60;;;17.77;;
52396;SDS011;38322;53.108;6.308;2023-03-01T17:58:01;26.73;;;18.30;;
52396;SDS011;38322;53.108;6.308;2023-03-01T18:00:28;28.17;;;17.85;;
52396;SDS011;38322;53.108;6.308;2023-03-01T18:02:54;24.58;;;18.15;;
52396;SDS011;38322;53.108;6.308;2023-03-01T18:05:20;23.05;;;17.48;;
52396;SDS011;38322;53.108;6.308;2023-03-01T18:07:46;24.10;;;17.30;;
52396;SDS011;38322;53.108;6.308;2023-03-01T18:10:12;25.55;;;20.23;;
52396;SDS011;38322;53.108;6.308;2023-03-01T18:12:37;28.13;;;16.75;;
52396;SDS011;38322;53.108;6.308;2023-03-01T18:15:05;22.10;;;16.58;;
52396;SDS011;38322;53.108;6.308;2023-03-01T18:17:31;24.02;;;16.63;;
52396;SDS011;38322;53.108;6.308;2023-03-01T18:19:57;25.42;;;16.80;;
52396;SDS011;38322;53.108;6.308;2023-03-01T18:22:23;21.83;;;16.02;;
52396;SDS011;38322;53.108;6.308;2023-03-01T18:24:49;29.55;;;17.38;;
52396;SDS011;38322;53.108;6.308;2023-03-01T18:27:15;27.55;;;18.65;;
52396;SDS011;38322;53.108;6.308;2023-03-01T18:29:41;20.55;;;14.93;;
52396;SDS011;38322;53.108;6.308;2023-03-01T18:32:07;21.13;;;15.70;;
52396;SDS011;38322;53.108;6.308;2023-03-01T18:34:33;22.15;;;15.60;;
52396;SDS011;38322;53.108;6.308;2023-03-01T18:36:59;28.63;;;16.25;;
52396;SDS011;38322;53.108;6.308;2023-03-01T18:39:25;24.83;;;17.48;;
52396;SDS011;38322;53.108;6.308;2023-03-01T18:41:51;26.40;;;17.67;;
52396;SDS011;38322;53.108;6.308;2023-03-01T18:44:17;25.50;;;16.70;;
52396;SDS011;38322;53.108;6.308;2023-03-01T18:46:43;23.33;;;18.70;;
52396;SDS011;38322;53.108;6.308;2023-03-01T18:49:11;23.75;;;17.73;;
52396;SDS011;38322;53.108;6.308;2023-03-01T18:51:38;20.83;;;17.35;;
52396;SDS011;38322;53.108;6.308;2023-03-01T18:54:04;25.92;;;18.58;;
52396;SDS011;38322;53.108;6.308;2023-03-01T18:56:31;25.08;;;17.13;;
52396;SDS011;38322;53.108;6.308;2023-03-01T18:58:58;27.88;;;19.65;;
52396;SDS011;38322;53.108;6.308;2023-03-01T19:01:25;24.48;;;20.70;;
52396;SDS011;38322;53.108;6.308;2023-03-01T19:03:53;31.33;;;19.35;;
52396;SDS011;38322;53.108;6.308;2023-03-01T19:06:20;26.08;;;20.30;;
52396;SDS011;38322;53.108;6.308;2023-03-01T19:08:47;28.67;;;19.08;;
52396;SDS011;38322;53.108;6.308;2023-03-01T19:11:13;26.95;;;20.98;;
52396;SDS011;38322;53.108;6.308;2023-03-01T19:13:41;29.88;;;19.75;;
52396;SDS011;38322;53.108;6.308;2023-03-01T19:16:10;30.90;;;19.58;;
52396;SDS011;38322;53.108;6.308;2023-03-01T19:18:39;28.63;;;19.92;;
52396;SDS011;38322;53.108;6.308;2023-03-01T19:21:06;29.63;;;21.27;;
52396;SDS011;38322;53.108;6.308;2023-03-01T19:23:33;26.02;;;19.42;;
52396;SDS011;38322;53.108;6.308;2023-03-01T19:26:00;30.92;;;21.05;;
52396;SDS011;38322;53.108;6.308;2023-03-01T19:28:28;32.25;;;21.67;;
52396;SDS011;38322;53.108;6.308;2023-03-01T19:31:01;31.88;;;19.67;;
52396;SDS011;38322;53.108;6.308;2023-03-01T19:33:29;28.85;;;21.55;;
52396;SDS011;38322;53.108;6.308;2023-03-01T19:35:56;29.73;;;21.23;;
52396;SDS011;38322;53.108;6.308;2023-03-01T19:38:23;27.83;;;20.85;;
52396;SDS011;38322;53.108;6.308;2023-03-01T19:40:49;27.25;;;19.38;;
52396;SDS011;38322;53.108;6.308;2023-03-01T19:43:16;30.80;;;21.42;;
52396;SDS011;38322;53.108;6.308;2023-03-01T19:45:42;26.60;;;19.48;;
52396;SDS011;38322;53.108;6.308;2023-03-01T19:48:07;32.83;;;20.70;;
52396;SDS011;38322;53.108;6.308;2023-03-01T19:50:33;29.95;;;20.42;;
52396;SDS011;38322;53.108;6.308;2023-03-01T19:52:59;28.25;;;20.05;;
52396;SDS011;38322;53.108;6.308;2023-03-01T19:55:25;29.13;;;19.10;;
52396;SDS011;38322;53.108;6.308;2023-03-01T19:57:51;30.25;;;21.20;;
52396;SDS011;38322;53.108;6.308;2023-03-01T20:00:17;27.58;;;19.10;;
52396;SDS011;38322;53.108;6.308;2023-03-01T20:02:43;27.02;;;19.55;;
52396;SDS011;38322;53.108;6.308;2023-03-01T20:05:09;31.20;;;22.60;;
52396;SDS011;38322;53.108;6.308;2023-03-01T20:07:35;33.17;;;20.65;;
52396;SDS011;38322;53.108;6.308;2023-03-01T20:10:01;28.77;;;19.25;;
52396;SDS011;38322;53.108;6.308;2023-03-01T20:12:27;29.23;;;22.08;;
52396;SDS011;38322;53.108;6.308;2023-03-01T20:14:53;37.25;;;23.23;;
52396;SDS011;38322;53.108;6.308;2023-03-01T20:17:20;34.65;;;22.77;;
52396;SDS011;38322;53.108;6.308;2023-03-01T20:19:46;35.08;;;23.20;;
52396;SDS011;38322;53.108;6.308;2023-03-01T20:22:12;35.67;;;23.50;;
52396;SDS011;38322;53.108;6.308;2023-03-01T20:24:40;30.77;;;22.27;;
52396;SDS011;38322;53.108;6.308;2023-03-01T20:27:06;35.22;;;24.20;;
52396;SDS011;38322;53.108;6.308;2023-03-01T20:29:32;31.15;;;22.00;;
52396;SDS011;38322;53.108;6.308;2023-03-01T20:31:58;29.33;;;20.85;;
52396;SDS011;38322;53.108;6.308;2023-03-01T20:34:24;30.27;;;22.10;;
52396;SDS011;38322;53.108;6.308;2023-03-01T20:36:50;31.80;;;21.95;;
52396;SDS011;38322;53.108;6.308;2023-03-01T20:39:16;32.75;;;21.90;;
52396;SDS011;38322;53.108;6.308;2023-03-01T20:41:42;39.80;;;25.38;;
52396;SDS011;38322;53.108;6.308;2023-03-01T20:44:07;36.88;;;22.67;;
52396;SDS011;38322;53.108;6.308;2023-03-01T20:46:34;37.67;;;24.63;;
52396;SDS011;38322;53.108;6.308;2023-03-01T20:49:00;39.25;;;26.33;;
52396;SDS011;38322;53.108;6.308;2023-03-01T20:51:27;36.00;;;24.60;;
52396;SDS011;38322;53.108;6.308;2023-03-01T20:53:52;45.75;;;28.85;;
52396;SDS011;38322;53.108;6.308;2023-03-01T20:56:19;40.78;;;25.70;;
52396;SDS011;38322;53.108;6.308;2023-03-01T20:58:46;43.85;;;26.83;;
